sensor_id;sensor_type;location;lat;lon;timestamp;P1;durP1;ratioP1;P2;durP2;ratioP2
68947;SDS011;55996;49.546;7.400;2022-08-16T00:00:56;6.83;;;5.07;;
68947;SDS011;55996;49.546;7.400;2022-08-16T00:03:21;5.07;;;4.67;;
68947;SDS011;55996;49.546;7.400;2022-08-16T00:05:47;4.90;;;4.50;;
68947;SDS011;55996;49.546;7.400;2022-08-16T00:08:12;6.87;;;4.93;;
68947;SDS011;55996;49.546;7.400;2022-08-16T00:10:38;6.47;;;4.73;;
68947;SDS011;55996;49.546;7.400;2022-08-16T00:13:05;5.50;;;5.10;;
68947;SDS011;55996;49.546;7.400;2022-08-16T00:17:57;5.50;;;5.00;;
68947;SDS011;55996;49.546;7.400;2022-08-16T00:20:23;5.63;;;4.47;;
68947;SDS011;55996;49.546;7.400;2022-08-16T00:22:49;5.80;;;5.30;;
68947;SDS011;55996;49.546;7.400;2022-08-16T00:25:16;5.30;;;4.80;;
68947;SDS011;55996;49.546;7.400;2022-08-16T00:27:43;6.77;;;5.37;;
68947;SDS011;55996;49.546;7.400;2022-08-16T00:30:09;5.70;;;5.20;;
68947;SDS011;55996;49.546;7.400;2022-08-16T00:32:37;5.07;;;4.60;;
68947;SDS011;55996;49.546;7.400;2022-08-16T00:35:04;4.93;;;4.53;;
68947;SDS011;55996;49.546;7.400;2022-08-16T00:37:34;5.27;;;4.83;;
68947;SDS011;55996;49.546;7.400;2022-08-16T00:39:59;6.97;;;5.10;;
68947;SDS011;55996;49.546;7.400;2022-08-16T00:42:26;5.20;;;4.80;;
68947;SDS011;55996;49.546;7.400;2022-08-16T00:44:55;5.73;;;5.23;;
68947;SDS011;55996;49.546;7.400;2022-08-16T00:47:24;5.70;;;5.20;;
68947;SDS011;55996;49.546;7.400;2022-08-16T00:49:50;6.27;;;5.67;;
68947;SDS011;55996;49.546;7.400;2022-08-16T00:52:17;7.43;;;5.57;;
68947;SDS011;55996;49.546;7.400;2022-08-16T00:54:43;6.03;;;5.40;;
68947;SDS011;55996;49.546;7.400;2022-08-16T00:57:09;6.33;;;5.77;;
68947;SDS011;55996;49.546;7.400;2022-08-16T00:59:35;5.80;;;5.23;;
68947;SDS011;55996;49.546;7.400;2022-08-16T01:02:04;5.73;;;5.10;;
68947;SDS011;55996;49.546;7.400;2022-08-16T01:04:32;6.17;;;5.57;;
68947;SDS011;55996;49.546;7.400;2022-08-16T01:07:00;5.73;;;5.20;;
68947;SDS011;55996;49.546;7.400;2022-08-16T01:09:30;5.63;;;5.13;;
68947;SDS011;55996;49.546;7.400;2022-08-16T01:11:57;5.43;;;4.93;;
68947;SDS011;55996;49.546;7.400;2022-08-16T01:14:24;5.93;;;5.43;;
68947;SDS011;55996;49.546;7.400;2022-08-16T01:16:54;5.93;;;5.40;;
68947;SDS011;55996;49.546;7.400;2022-08-16T01:19:34;5.63;;;5.13;;
68947;SDS011;55996;49.546;7.400;2022-08-16T01:22:04;6.27;;;5.67;;
68947;SDS011;55996;49.546;7.400;2022-08-16T01:24:45;6.50;;;5.60;;
68947;SDS011;55996;49.546;7.400;2022-08-16T01:27:19;5.63;;;5.13;;
68947;SDS011;55996;49.546;7.400;2022-08-16T01:32:21;6.03;;;5.00;;
68947;SDS011;55996;49.546;7.400;2022-08-16T01:34:47;6.10;;;5.60;;
68947;SDS011;55996;49.546;7.400;2022-08-16T01:37:13;5.90;;;5.00;;
68947;SDS011;55996;49.546;7.400;2022-08-16T01:39:39;6.07;;;5.57;;
68947;SDS011;55996;49.546;7.400;2022-08-16T01:42:06;6.33;;;5.60;;
68947;SDS011;55996;49.546;7.400;2022-08-16T01:44:33;6.47;;;5.80;;
68947;SDS011;55996;49.546;7.400;2022-08-16T01:46:59;6.37;;;5.73;;
68947;SDS011;55996;49.546;7.400;2022-08-16T01:49:27;6.30;;;5.57;;
68947;SDS011;55996;49.546;7.400;2022-08-16T01:51:58;6.10;;;5.47;;
68947;SDS011;55996;49.546;7.400;2022-08-16T01:54:26;6.10;;;5.50;;
68947;SDS011;55996;49.546;7.400;2022-08-16T01:56:52;6.00;;;5.40;;
68947;SDS011;55996;49.546;7.400;2022-08-16T01:59:18;6.13;;;5.53;;
68947;SDS011;55996;49.546;7.400;2022-08-16T02:01:45;7.53;;;5.30;;
68947;SDS011;55996;49.546;7.400;2022-08-16T02:04:12;5.90;;;5.40;;
68947;SDS011;55996;49.546;7.400;2022-08-16T02:06:39;6.50;;;5.90;;
68947;SDS011;55996;49.546;7.400;2022-08-16T02:09:06;5.90;;;5.30;;
68947;SDS011;55996;49.546;7.400;2022-08-16T02:11:33;5.80;;;5.30;;
68947;SDS011;55996;49.546;7.400;2022-08-16T02:13:59;5.70;;;5.20;;
68947;SDS011;55996;49.546;7.400;2022-08-16T02:16:24;7.23;;;5.80;;
68947;SDS011;55996;49.546;7.400;2022-08-16T02:18:50;6.17;;;5.67;;
68947;SDS011;55996;49.546;7.400;2022-08-16T02:21:16;6.10;;;5.60;;
68947;SDS011;55996;49.546;7.400;2022-08-16T02:23:42;5.87;;;5.03;;
68947;SDS011;55996;49.546;7.400;2022-08-16T02:26:09;6.23;;;5.73;;
68947;SDS011;55996;49.546;7.400;2022-08-16T02:28:34;5.97;;;5.47;;
68947;SDS011;55996;49.546;7.400;2022-08-16T02:31:04;5.57;;;5.07;;
68947;SDS011;55996;49.546;7.400;2022-08-16T02:33:32;6.33;;;5.30;;
68947;SDS011;55996;49.546;7.400;2022-08-16T02:35:58;5.90;;;5.30;;
68947;SDS011;55996;49.546;7.400;2022-08-16T02:38:24;5.10;;;4.70;;
68947;SDS011;55996;49.546;7.400;2022-08-16T02:40:51;5.13;;;4.73;;
68947;SDS011;55996;49.546;7.400;2022-08-16T02:43:17;5.30;;;4.90;;
68947;SDS011;55996;49.546;7.400;2022-08-16T02:45:43;6.60;;;6.00;;
68947;SDS011;55996;49.546;7.400;2022-08-16T02:48:09;6.00;;;5.47;;
68947;SDS011;55996;49.546;7.400;2022-08-16T02:50:35;5.53;;;5.10;;
68947;SDS011;55996;49.546;7.400;2022-08-16T02:53:00;5.37;;;4.93;;
68947;SDS011;55996;49.546;7.400;2022-08-16T02:55:26;5.90;;;5.20;;
68947;SDS011;55996;49.546;7.400;2022-08-16T02:57:51;4.97;;;4.57;;
68947;SDS011;55996;49.546;7.400;2022-08-16T03:00:17;5.13;;;4.73;;
68947;SDS011;55996;49.546;7.400;2022-08-16T03:02:43;6.10;;;5.50;;
68947;SDS011;55996;49.546;7.400;2022-08-16T03:05:09;7.13;;;5.13;;
68947;SDS011;55996;49.546;7.400;2022-08-16T03:07:36;6.50;;;6.00;;
68947;SDS011;55996;49.546;7.400;2022-08-16T03:10:02;6.20;;;5.70;;
68947;SDS011;55996;49.546;7.400;2022-08-16T03:12:29;7.00;;;6.40;;
68947;SDS011;55996;49.546;7.400;2022-08-16T03:14:55;6.07;;;5.40;;
68947;SDS011;55996;49.546;7.400;2022-08-16T03:17:20;6.30;;;5.80;;
68947;SDS011;55996;49.546;7.400;2022-08-16T03:19:45;6.47;;;5.90;;
68947;SDS011;55996;49.546;7.400;2022-08-16T03:22:11;6.80;;;6.13;;
68947;SDS011;55996;49.546;7.400;2022-08-16T03:24:36;6.80;;;6.20;;
68947;SDS011;55996;49.546;7.400;2022-08-16T03:27:02;6.80;;;6.10;;
68947;SDS011;55996;49.546;7.400;2022-08-16T03:29:29;6.63;;;5.83;;
68947;SDS011;55996;49.546;7.400;2022-08-16T03:31:57;6.80;;;6.10;;
68947;SDS011;55996;49.546;7.400;2022-08-16T03:34:23;6.90;;;6.20;;
68947;SDS011;55996;49.546;7.400;2022-08-16T03:36:48;6.70;;;6.10;;
68947;SDS011;55996;49.546;7.400;2022-08-16T03:39:14;7.87;;;7.10;;
68947;SDS011;55996;49.546;7.400;2022-08-16T03:41:39;9.30;;;6.63;;
68947;SDS011;55996;49.546;7.400;2022-08-16T03:44:05;6.67;;;6.17;;
68947;SDS011;55996;49.546;7.400;2022-08-16T03:46:31;7.90;;;7.10;;
68947;SDS011;55996;49.546;7.400;2022-08-16T03:49:00;7.47;;;6.80;;
68947;SDS011;55996;49.546;7.400;2022-08-16T03:51:26;8.43;;;7.50;;
68947;SDS011;55996;49.546;7.400;2022-08-16T03:53:51;8.30;;;7.23;;
68947;SDS011;55996;49.546;7.400;2022-08-16T03:56:17;7.70;;;7.00;;
68947;SDS011;55996;49.546;7.400;2022-08-16T03:58:43;8.47;;;7.70;;
68947;SDS011;55996;49.546;7.400;2022-08-16T04:01:08;9.07;;;7.67;;
68947;SDS011;55996;49.546;7.400;2022-08-16T04:03:34;9.47;;;7.83;;
68947;SDS011;55996;49.546;7.400;2022-08-16T04:06:00;10.27;;;8.20;;
68947;SDS011;55996;49.546;7.400;2022-08-16T04:08:25;8.67;;;7.87;;
68947;SDS011;55996;49.546;7.400;2022-08-16T04:10:52;8.87;;;8.07;;
68947;SDS011;55996;49.546;7.400;2022-08-16T04:13:19;9.83;;;8.87;;
68947;SDS011;55996;49.546;7.400;2022-08-16T04:15:47;9.90;;;9.00;;
68947;SDS011;55996;49.546;7.400;2022-08-16T04:18:12;8.47;;;7.67;;
68947;SDS011;55996;49.546;7.400;2022-08-16T04:20:38;8.33;;;7.53;;
68947;SDS011;55996;49.546;7.400;2022-08-16T04:23:04;8.60;;;7.90;;
68947;SDS011;55996;49.546;7.400;2022-08-16T04:25:32;8.37;;;7.60;;
68947;SDS011;55996;49.546;7.400;2022-08-16T04:27:58;8.53;;;7.73;;
68947;SDS011;55996;49.546;7.400;2022-08-16T04:30:24;8.73;;;7.93;;
68947;SDS011;55996;49.546;7.400;2022-08-16T04:32:51;8.93;;;8.13;;
68947;SDS011;55996;49.546;7.400;2022-08-16T04:35:18;8.43;;;7.63;;
68947;SDS011;55996;49.546;7.400;2022-08-16T04:37:48;9.23;;;7.90;;
68947;SDS011;55996;49.546;7.400;2022-08-16T04:40:14;8.80;;;8.00;;
68947;SDS011;55996;49.546;7.400;2022-08-16T04:42:41;8.60;;;7.80;;
68947;SDS011;55996;49.546;7.400;2022-08-16T04:45:08;9.00;;;8.10;;
68947;SDS011;55996;49.546;7.400;2022-08-16T04:47:35;8.13;;;7.43;;
68947;SDS011;55996;49.546;7.400;2022-08-16T04:50:14;8.07;;;7.27;;
68947;SDS011;55996;49.546;7.400;2022-08-16T04:52:45;8.47;;;7.77;;
68947;SDS011;55996;49.546;7.400;2022-08-16T04:55:16;8.07;;;7.37;;
68947;SDS011;55996;49.546;7.400;2022-08-16T04:57:45;8.10;;;7.30;;
68947;SDS011;55996;49.546;7.400;2022-08-16T05:00:17;8.40;;;7.70;;
68947;SDS011;55996;49.546;7.400;2022-08-16T05:02:47;8.30;;;7.60;;
68947;SDS011;55996;49.546;7.400;2022-08-16T05:05:14;7.90;;;7.20;;
68947;SDS011;55996;49.546;7.400;2022-08-16T05:07:39;7.57;;;6.87;;
68947;SDS011;55996;49.546;7.400;2022-08-16T05:10:06;8.27;;;7.57;;
68947;SDS011;55996;49.546;7.400;2022-08-16T05:12:33;8.30;;;7.60;;
68947;SDS011;55996;49.546;7.400;2022-08-16T05:15:00;8.33;;;7.50;;
68947;SDS011;55996;49.546;7.400;2022-08-16T05:17:26;8.53;;;7.83;;
68947;SDS011;55996;49.546;7.400;2022-08-16T05:19:52;8.20;;;7.13;;
68947;SDS011;55996;49.546;7.400;2022-08-16T05:22:18;8.20;;;7.50;;
68947;SDS011;55996;49.546;7.400;2022-08-16T05:24:43;8.17;;;7.00;;
68947;SDS011;55996;49.546;7.400;2022-08-16T05:27:09;7.07;;;6.43;;
68947;SDS011;55996;49.546;7.400;2022-08-16T05:29:34;6.33;;;4.70;;
68947;SDS011;55996;49.546;7.400;2022-08-16T05:32:00;4.80;;;4.10;;
68947;SDS011;55996;49.546;7.400;2022-08-16T05:34:26;4.20;;;3.80;;
68947;SDS011;55996;49.546;7.400;2022-08-16T05:36:52;4.43;;;4.03;;
68947;SDS011;55996;49.546;7.400;2022-08-16T05:39:21;4.70;;;4.07;;
68947;SDS011;55996;49.546;7.400;2022-08-16T05:41:48;4.63;;;4.30;;
68947;SDS011;55996;49.546;7.400;2022-08-16T05:44:14;4.50;;;4.10;;
68947;SDS011;55996;49.546;7.400;2022-08-16T05:46:41;4.55;;;4.15;;
68947;SDS011;55996;49.546;7.400;2022-08-16T05:49:09;5.65;;;5.15;;
68947;SDS011;55996;49.546;7.400;2022-08-16T05:51:37;4.70;;;4.30;;
68947;SDS011;55996;49.546;7.400;2022-08-16T05:54:04;5.20;;;4.80;;
68947;SDS011;55996;49.546;7.400;2022-08-16T05:56:29;6.32;;;5.72;;
68947;SDS011;55996;49.546;7.400;2022-08-16T05:58:55;6.93;;;6.20;;
68947;SDS011;55996;49.546;7.400;2022-08-16T06:01:20;5.63;;;5.13;;
68947;SDS011;55996;49.546;7.400;2022-08-16T06:03:45;6.45;;;5.85;;
68947;SDS011;55996;49.546;7.400;2022-08-16T06:06:11;6.68;;;6.10;;
68947;SDS011;55996;49.546;7.400;2022-08-16T06:08:36;7.05;;;6.45;;
68947;SDS011;55996;49.546;7.400;2022-08-16T06:11:02;7.03;;;6.32;;
68947;SDS011;55996;49.546;7.400;2022-08-16T06:13:28;7.70;;;7.03;;
68947;SDS011;55996;49.546;7.400;2022-08-16T06:15:54;7.00;;;6.35;;
68947;SDS011;55996;49.546;7.400;2022-08-16T06:18:19;8.05;;;7.28;;
68947;SDS011;55996;49.546;7.400;2022-08-16T06:20:45;8.23;;;7.40;;
68947;SDS011;55996;49.546;7.400;2022-08-16T06:23:10;7.40;;;6.70;;
68947;SDS011;55996;49.546;7.400;2022-08-16T06:25:36;7.40;;;6.22;;
68947;SDS011;55996;49.546;7.400;2022-08-16T06:28:02;7.33;;;6.67;;
68947;SDS011;55996;49.546;7.400;2022-08-16T06:30:28;7.78;;;7.07;;
68947;SDS011;55996;49.546;7.400;2022-08-16T06:32:56;7.68;;;6.97;;
68947;SDS011;55996;49.546;7.400;2022-08-16T06:35:21;6.95;;;6.45;;
68947;SDS011;55996;49.546;7.400;2022-08-16T06:37:48;7.03;;;6.32;;
68947;SDS011;55996;49.546;7.400;2022-08-16T06:40:13;6.05;;;5.57;;
68947;SDS011;55996;49.546;7.400;2022-08-16T06:42:39;6.13;;;5.53;;
68947;SDS011;55996;49.546;7.400;2022-08-16T06:45:04;6.30;;;5.70;;
68947;SDS011;55996;49.546;7.400;2022-08-16T06:47:30;6.80;;;6.20;;
68947;SDS011;55996;49.546;7.400;2022-08-16T06:49:56;7.38;;;6.72;;
68947;SDS011;55996;49.546;7.400;2022-08-16T06:52:21;9.38;;;7.22;;
68947;SDS011;55996;49.546;7.400;2022-08-16T06:54:47;8.98;;;7.93;;
68947;SDS011;55996;49.546;7.400;2022-08-16T06:57:13;8.30;;;7.50;;
68947;SDS011;55996;49.546;7.400;2022-08-16T06:59:38;9.23;;;8.30;;
68947;SDS011;55996;49.546;7.400;2022-08-16T07:02:04;10.00;;;9.00;;
68947;SDS011;55996;49.546;7.400;2022-08-16T07:04:29;11.18;;;10.18;;
68947;SDS011;55996;49.546;7.400;2022-08-16T07:06:55;10.63;;;9.13;;
68947;SDS011;55996;49.546;7.400;2022-08-16T07:09:21;9.82;;;8.80;;
68947;SDS011;55996;49.546;7.400;2022-08-16T07:11:46;9.93;;;9.02;;
68947;SDS011;55996;49.546;7.400;2022-08-16T07:14:12;10.50;;;9.60;;
68947;SDS011;55996;49.546;7.400;2022-08-16T07:16:37;12.63;;;11.43;;
68947;SDS011;55996;49.546;7.400;2022-08-16T07:19:04;14.95;;;12.32;;
68947;SDS011;55996;49.546;7.400;2022-08-16T07:21:29;14.85;;;13.35;;
68947;SDS011;55996;49.546;7.400;2022-08-16T07:23:55;15.77;;;13.27;;
68947;SDS011;55996;49.546;7.400;2022-08-16T07:26:22;15.68;;;13.60;;
68947;SDS011;55996;49.546;7.400;2022-08-16T07:28:50;15.07;;;12.93;;
68947;SDS011;55996;49.546;7.400;2022-08-16T07:31:16;12.23;;;11.03;;
68947;SDS011;55996;49.546;7.400;2022-08-16T07:33:42;14.83;;;13.23;;
68947;SDS011;55996;49.546;7.400;2022-08-16T07:36:09;13.40;;;11.90;;
68947;SDS011;55996;49.546;7.400;2022-08-16T07:38:36;13.10;;;11.90;;
68947;SDS011;55996;49.546;7.400;2022-08-16T07:41:02;13.40;;;11.90;;
68947;SDS011;55996;49.546;7.400;2022-08-16T07:43:28;12.02;;;10.82;;
68947;SDS011;55996;49.546;7.400;2022-08-16T07:45:54;14.50;;;12.85;;
68947;SDS011;55996;49.546;7.400;2022-08-16T07:48:20;14.23;;;12.80;;
68947;SDS011;55996;49.546;7.400;2022-08-16T07:50:46;11.40;;;10.20;;
68947;SDS011;55996;49.546;7.400;2022-08-16T07:53:12;12.63;;;11.02;;
68947;SDS011;55996;49.546;7.400;2022-08-16T07:55:38;11.52;;;10.43;;
68947;SDS011;55996;49.546;7.400;2022-08-16T07:58:04;11.02;;;10.02;;
68947;SDS011;55996;49.546;7.400;2022-08-16T08:00:30;10.77;;;9.77;;
68947;SDS011;55996;49.546;7.400;2022-08-16T08:02:56;11.27;;;10.15;;
68947;SDS011;55996;49.546;7.400;2022-08-16T08:05:22;9.27;;;8.45;;
68947;SDS011;55996;49.546;7.400;2022-08-16T08:07:49;10.10;;;9.07;;
68947;SDS011;55996;49.546;7.400;2022-08-16T08:10:16;9.90;;;8.90;;
68947;SDS011;55996;49.546;7.400;2022-08-16T08:12:42;11.07;;;9.57;;
68947;SDS011;55996;49.546;7.400;2022-08-16T08:15:09;9.93;;;8.27;;
68947;SDS011;55996;49.546;7.400;2022-08-16T08:17:36;10.77;;;8.82;;
68947;SDS011;55996;49.546;7.400;2022-08-16T08:20:04;9.73;;;7.90;;
68947;SDS011;55996;49.546;7.400;2022-08-16T08:22:31;8.98;;;8.07;;
68947;SDS011;55996;49.546;7.400;2022-08-16T08:24:57;9.07;;;8.18;;
68947;SDS011;55996;49.546;7.400;2022-08-16T08:27:22;10.23;;;7.38;;
68947;SDS011;55996;49.546;7.400;2022-08-16T08:29:48;8.32;;;7.35;;
68947;SDS011;55996;49.546;7.400;2022-08-16T08:32:14;9.05;;;7.57;;
68947;SDS011;55996;49.546;7.400;2022-08-16T08:34:39;8.10;;;7.05;;
68947;SDS011;55996;49.546;7.400;2022-08-16T08:37:05;8.60;;;7.70;;
68947;SDS011;55996;49.546;7.400;2022-08-16T08:39:30;11.00;;;9.90;;
68947;SDS011;55996;49.546;7.400;2022-08-16T08:41:56;8.25;;;7.43;;
68947;SDS011;55996;49.546;7.400;2022-08-16T08:44:21;11.48;;;7.45;;
68947;SDS011;55996;49.546;7.400;2022-08-16T08:46:47;11.43;;;7.38;;
68947;SDS011;55996;49.546;7.400;2022-08-16T08:49:12;8.02;;;7.10;;
68947;SDS011;55996;49.546;7.400;2022-08-16T08:51:38;6.55;;;5.97;;
68947;SDS011;55996;49.546;7.400;2022-08-16T08:54:07;7.65;;;6.65;;
68947;SDS011;55996;49.546;7.400;2022-08-16T08:56:33;8.75;;;6.53;;
68947;SDS011;55996;49.546;7.400;2022-08-16T08:59:01;7.00;;;6.30;;
68947;SDS011;55996;49.546;7.400;2022-08-16T09:01:34;8.40;;;7.32;;
68947;SDS011;55996;49.546;7.400;2022-08-16T09:04:01;6.47;;;5.85;;
68947;SDS011;55996;49.546;7.400;2022-08-16T09:06:28;6.40;;;5.80;;
68947;SDS011;55996;49.546;7.400;2022-08-16T09:08:56;7.07;;;5.70;;
68947;SDS011;55996;49.546;7.400;2022-08-16T09:11:23;6.85;;;5.82;;
68947;SDS011;55996;49.546;7.400;2022-08-16T09:13:49;7.53;;;6.30;;
68947;SDS011;55996;49.546;7.400;2022-08-16T09:16:15;8.93;;;6.50;;
68947;SDS011;55996;49.546;7.400;2022-08-16T09:18:42;7.18;;;6.53;;
68947;SDS011;55996;49.546;7.400;2022-08-16T09:21:08;6.90;;;6.20;;
68947;SDS011;55996;49.546;7.400;2022-08-16T09:23:34;8.07;;;6.47;;
68947;SDS011;55996;49.546;7.400;2022-08-16T09:26:04;8.32;;;6.18;;
68947;SDS011;55996;49.546;7.400;2022-08-16T09:28:32;6.05;;;5.45;;
68947;SDS011;55996;49.546;7.400;2022-08-16T09:30:58;4.72;;;4.32;;
68947;SDS011;55996;49.546;7.400;2022-08-16T09:33:24;5.25;;;4.75;;
68947;SDS011;55996;49.546;7.400;2022-08-16T09:35:50;6.03;;;4.93;;
68947;SDS011;55996;49.546;7.400;2022-08-16T09:38:16;5.38;;;4.50;;
68947;SDS011;55996;49.546;7.400;2022-08-16T09:40:42;5.28;;;4.78;;
68947;SDS011;55996;49.546;7.400;2022-08-16T09:43:12;4.15;;;3.75;;
68947;SDS011;55996;49.546;7.400;2022-08-16T09:45:42;3.50;;;3.20;;
68947;SDS011;55996;49.546;7.400;2022-08-16T09:48:08;3.22;;;2.90;;
68947;SDS011;55996;49.546;7.400;2022-08-16T09:50:36;4.40;;;2.70;;
68947;SDS011;55996;49.546;7.400;2022-08-16T09:53:05;2.92;;;2.63;;
68947;SDS011;55996;49.546;7.400;2022-08-16T09:55:33;2.70;;;2.47;;
68947;SDS011;55996;49.546;7.400;2022-08-16T09:57:59;4.88;;;2.67;;
68947;SDS011;55996;49.546;7.400;2022-08-16T10:00:24;3.80;;;3.15;;
68947;SDS011;55996;49.546;7.400;2022-08-16T10:02:51;3.60;;;3.30;;
68947;SDS011;55996;49.546;7.400;2022-08-16T10:05:17;3.40;;;3.10;;
68947;SDS011;55996;49.546;7.400;2022-08-16T10:07:44;3.60;;;3.10;;
68947;SDS011;55996;49.546;7.400;2022-08-16T10:10:12;3.35;;;2.70;;
68947;SDS011;55996;49.546;7.400;2022-08-16T10:12:38;3.22;;;2.92;;
68947;SDS011;55996;49.546;7.400;2022-08-16T10:15:22;4.82;;;2.90;;
68947;SDS011;55996;49.546;7.400;2022-08-16T10:17:50;3.50;;;3.20;;
68947;SDS011;55996;49.546;7.400;2022-08-16T10:20:17;3.65;;;3.10;;
68947;SDS011;55996;49.546;7.400;2022-08-16T10:22:43;3.55;;;3.00;;
68947;SDS011;55996;49.546;7.400;2022-08-16T10:25:09;3.28;;;2.97;;
68947;SDS011;55996;49.546;7.400;2022-08-16T10:27:34;3.60;;;3.20;;
68947;SDS011;55996;49.546;7.400;2022-08-16T10:30:01;3.20;;;2.90;;
68947;SDS011;55996;49.546;7.400;2022-08-16T10:32:29;3.70;;;3.05;;
68947;SDS011;55996;49.546;7.400;2022-08-16T10:34:55;3.28;;;2.97;;
68947;SDS011;55996;49.546;7.400;2022-08-16T10:37:20;4.20;;;3.60;;
68947;SDS011;55996;49.546;7.400;2022-08-16T10:39:46;4.05;;;3.65;;
68947;SDS011;55996;49.546;7.400;2022-08-16T10:42:11;3.90;;;3.60;;
68947;SDS011;55996;49.546;7.400;2022-08-16T10:44:37;4.25;;;3.83;;
68947;SDS011;55996;49.546;7.400;2022-08-16T10:47:03;4.88;;;4.10;;
68947;SDS011;55996;49.546;7.400;2022-08-16T10:49:30;3.53;;;3.25;;
68947;SDS011;55996;49.546;7.400;2022-08-16T10:51:56;3.80;;;3.50;;
68947;SDS011;55996;49.546;7.400;2022-08-16T10:54:21;4.13;;;3.60;;
68947;SDS011;55996;49.546;7.400;2022-08-16T10:56:47;3.90;;;3.42;;
68947;SDS011;55996;49.546;7.400;2022-08-16T10:59:14;4.13;;;3.38;;
68947;SDS011;55996;49.546;7.400;2022-08-16T11:01:39;5.07;;;3.90;;
68947;SDS011;55996;49.546;7.400;2022-08-16T11:04:05;3.72;;;3.38;;
68947;SDS011;55996;49.546;7.400;2022-08-16T11:06:32;4.10;;;3.67;;
68947;SDS011;55996;49.546;7.400;2022-08-16T11:08:57;4.25;;;3.25;;
68947;SDS011;55996;49.546;7.400;2022-08-16T11:11:23;4.80;;;3.78;;
68947;SDS011;55996;49.546;7.400;2022-08-16T11:13:50;3.78;;;3.17;;
68947;SDS011;55996;49.546;7.400;2022-08-16T11:16:17;6.18;;;3.28;;
68947;SDS011;55996;49.546;7.400;2022-08-16T11:18:43;5.78;;;3.13;;
68947;SDS011;55996;49.546;7.400;2022-08-16T11:21:10;3.63;;;3.28;;
68947;SDS011;55996;49.546;7.400;2022-08-16T11:23:36;4.30;;;3.35;;
68947;SDS011;55996;49.546;7.400;2022-08-16T11:26:01;3.75;;;3.40;;
68947;SDS011;55996;49.546;7.400;2022-08-16T11:28:27;4.05;;;3.38;;
68947;SDS011;55996;49.546;7.400;2022-08-16T11:30:52;3.67;;;3.10;;
68947;SDS011;55996;49.546;7.400;2022-08-16T11:33:18;4.00;;;3.33;;
68947;SDS011;55996;49.546;7.400;2022-08-16T11:35:43;3.85;;;3.38;;
68947;SDS011;55996;49.546;7.400;2022-08-16T11:38:11;3.75;;;3.45;;
68947;SDS011;55996;49.546;7.400;2022-08-16T11:40:41;4.80;;;3.58;;
68947;SDS011;55996;49.546;7.400;2022-08-16T11:43:14;4.20;;;3.80;;
68947;SDS011;55996;49.546;7.400;2022-08-16T11:45:47;3.65;;;3.35;;
68947;SDS011;55996;49.546;7.400;2022-08-16T11:48:14;5.45;;;3.60;;
68947;SDS011;55996;49.546;7.400;2022-08-16T11:50:40;4.72;;;3.55;;
68947;SDS011;55996;49.546;7.400;2022-08-16T11:53:08;3.60;;;3.30;;
68947;SDS011;55996;49.546;7.400;2022-08-16T11:55:34;3.72;;;3.40;;
68947;SDS011;55996;49.546;7.400;2022-08-16T11:58:02;4.20;;;3.33;;
68947;SDS011;55996;49.546;7.400;2022-08-16T12:00:29;4.22;;;3.17;;
68947;SDS011;55996;49.546;7.400;2022-08-16T12:02:56;3.70;;;3.40;;
68947;SDS011;55996;49.546;7.400;2022-08-16T12:05:22;4.05;;;3.30;;
68947;SDS011;55996;49.546;7.400;2022-08-16T12:07:50;3.50;;;3.10;;
68947;SDS011;55996;49.546;7.400;2022-08-16T12:10:16;3.33;;;3.03;;
68947;SDS011;55996;49.546;7.400;2022-08-16T12:12:43;4.68;;;3.25;;
68947;SDS011;55996;49.546;7.400;2022-08-16T12:15:10;4.00;;;3.22;;
68947;SDS011;55996;49.546;7.400;2022-08-16T12:17:36;4.82;;;3.25;;
68947;SDS011;55996;49.546;7.400;2022-08-16T12:20:04;3.70;;;3.40;;
68947;SDS011;55996;49.546;7.400;2022-08-16T12:22:50;4.15;;;3.22;;
68947;SDS011;55996;49.546;7.400;2022-08-16T12:25:20;3.72;;;3.42;;
68947;SDS011;55996;49.546;7.400;2022-08-16T12:27:48;3.72;;;3.42;;
68947;SDS011;55996;49.546;7.400;2022-08-16T12:30:15;3.65;;;3.35;;
68947;SDS011;55996;49.546;7.400;2022-08-16T12:32:42;4.40;;;3.60;;
68947;SDS011;55996;49.546;7.400;2022-08-16T12:35:10;3.60;;;3.33;;
68947;SDS011;55996;49.546;7.400;2022-08-16T12:37:39;5.30;;;3.78;;
68947;SDS011;55996;49.546;7.400;2022-08-16T12:40:08;3.50;;;3.15;;
68947;SDS011;55996;49.546;7.400;2022-08-16T12:42:36;4.15;;;3.53;;
68947;SDS011;55996;49.546;7.400;2022-08-16T12:45:06;3.85;;;3.47;;
68947;SDS011;55996;49.546;7.400;2022-08-16T12:47:34;4.97;;;3.60;;
68947;SDS011;55996;49.546;7.400;2022-08-16T12:50:18;3.92;;;3.60;;
68947;SDS011;55996;49.546;7.400;2022-08-16T12:52:43;4.00;;;3.70;;
68947;SDS011;55996;49.546;7.400;2022-08-16T12:55:09;4.07;;;3.78;;
68947;SDS011;55996;49.546;7.400;2022-08-16T12:57:36;4.32;;;3.53;;
68947;SDS011;55996;49.546;7.400;2022-08-16T13:00:07;4.32;;;3.33;;
68947;SDS011;55996;49.546;7.400;2022-08-16T13:02:37;3.40;;;3.10;;
68947;SDS011;55996;49.546;7.400;2022-08-16T13:05:04;3.60;;;2.78;;
68947;SDS011;55996;49.546;7.400;2022-08-16T13:07:31;4.78;;;2.85;;
68947;SDS011;55996;49.546;7.400;2022-08-16T13:09:57;3.83;;;2.83;;
68947;SDS011;55996;49.546;7.400;2022-08-16T13:12:34;3.08;;;2.78;;
68947;SDS011;55996;49.546;7.400;2022-08-16T13:15:03;2.90;;;2.60;;
68947;SDS011;55996;49.546;7.400;2022-08-16T13:17:35;2.88;;;2.53;;
68947;SDS011;55996;49.546;7.400;2022-08-16T13:20:02;2.83;;;2.63;;
68947;SDS011;55996;49.546;7.400;2022-08-16T13:22:30;2.78;;;2.58;;
68947;SDS011;55996;49.546;7.400;2022-08-16T13:24:55;4.25;;;2.70;;
68947;SDS011;55996;49.546;7.400;2022-08-16T13:27:21;3.78;;;2.83;;
68947;SDS011;55996;49.546;7.400;2022-08-16T13:29:47;4.35;;;2.85;;
68947;SDS011;55996;49.546;7.400;2022-08-16T13:32:13;3.40;;;2.90;;
68947;SDS011;55996;49.546;7.400;2022-08-16T13:34:38;3.08;;;2.78;;
68947;SDS011;55996;49.546;7.400;2022-08-16T13:37:04;3.25;;;2.95;;
68947;SDS011;55996;49.546;7.400;2022-08-16T13:39:30;4.05;;;3.58;;
68947;SDS011;55996;49.546;7.400;2022-08-16T13:41:56;5.63;;;3.30;;
68947;SDS011;55996;49.546;7.400;2022-08-16T13:44:22;3.35;;;3.08;;
68947;SDS011;55996;49.546;7.400;2022-08-16T13:46:47;5.00;;;3.13;;
68947;SDS011;55996;49.546;7.400;2022-08-16T13:49:13;3.85;;;3.22;;
68947;SDS011;55996;49.546;7.400;2022-08-16T13:51:39;4.05;;;3.25;;
68947;SDS011;55996;49.546;7.400;2022-08-16T13:54:05;5.68;;;3.17;;
68947;SDS011;55996;49.546;7.400;2022-08-16T13:56:31;3.70;;;3.40;;
68947;SDS011;55996;49.546;7.400;2022-08-16T13:59:02;3.20;;;3.00;;
68947;SDS011;55996;49.546;7.400;2022-08-16T14:01:28;6.40;;;3.20;;
68947;SDS011;55996;49.546;7.400;2022-08-16T14:03:53;5.63;;;3.22;;
68947;SDS011;55996;49.546;7.400;2022-08-16T14:06:19;3.25;;;2.95;;
68947;SDS011;55996;49.546;7.400;2022-08-16T14:08:45;3.00;;;2.70;;
68947;SDS011;55996;49.546;7.400;2022-08-16T14:11:11;3.50;;;3.20;;
68947;SDS011;55996;49.546;7.400;2022-08-16T14:13:38;5.28;;;3.28;;
68947;SDS011;55996;49.546;7.400;2022-08-16T14:16:06;3.25;;;3.00;;
68947;SDS011;55996;49.546;7.400;2022-08-16T14:18:32;3.17;;;2.97;;
68947;SDS011;55996;49.546;7.400;2022-08-16T14:20:58;4.20;;;2.92;;
68947;SDS011;55996;49.546;7.400;2022-08-16T14:23:23;4.55;;;3.05;;
68947;SDS011;55996;49.546;7.400;2022-08-16T14:25:49;3.90;;;3.00;;
68947;SDS011;55996;49.546;7.400;2022-08-16T14:28:14;12.45;;;3.20;;
68947;SDS011;55996;49.546;7.400;2022-08-16T14:30:40;6.90;;;3.00;;
68947;SDS011;55996;49.546;7.400;2022-08-16T14:33:06;4.20;;;3.05;;
68947;SDS011;55996;49.546;7.400;2022-08-16T14:35:32;4.22;;;2.78;;
68947;SDS011;55996;49.546;7.400;2022-08-16T14:37:58;5.68;;;2.90;;
68947;SDS011;55996;49.546;7.400;2022-08-16T14:40:25;3.35;;;3.05;;
68947;SDS011;55996;49.546;7.400;2022-08-16T14:42:51;3.30;;;3.00;;
68947;SDS011;55996;49.546;7.400;2022-08-16T14:45:19;4.32;;;3.10;;
68947;SDS011;55996;49.546;7.400;2022-08-16T14:47:47;3.92;;;3.33;;